createdAt,value
2023-04-10T00:00:11.220Z,5.22
2023-04-10T00:02:37.964Z,5.10
2023-04-10T00:05:04.317Z,4.92
2023-04-10T00:07:29.797Z,5.45
2023-04-10T00:09:55.009Z,5.53
2023-04-10T00:12:22.663Z,5.35
2023-04-10T00:13:33.522Z,6.00
2023-04-10T00:15:58.926Z,5.87
2023-04-10T00:18:24.200Z,5.48
2023-04-10T00:20:51.165Z,6.60
2023-04-10T00:23:17.787Z,5.55
2023-04-10T00:25:42.910Z,6.35
2023-04-10T00:28:08.934Z,6.42
2023-04-10T00:30:34.176Z,5.73
2023-04-10T00:32:59.491Z,6.87
2023-04-10T00:35:25.145Z,7.98
2023-04-10T00:37:54.544Z,9.55
2023-04-10T00:40:19.763Z,7.05
2023-04-10T00:42:44.965Z,6.86
2023-04-10T00:45:14.572Z,5.87
2023-04-10T00:47:40.501Z,6.07
2023-04-10T00:50:10.411Z,6.02
2023-04-10T00:52:39.293Z,6.03
2023-04-10T00:55:08.563Z,6.20
2023-04-10T00:57:34.392Z,7.08
2023-04-10T00:58:44.044Z,6.83
2023-04-10T01:01:09.142Z,6.43
2023-04-10T01:03:37.812Z,5.98
2023-04-10T01:06:18.540Z,7.48
2023-04-10T01:09:40.494Z,8.40
2023-04-10T01:12:36.012Z,6.82
2023-04-10T01:15:30.908Z,6.55
2023-04-10T01:19:53.470Z,6.22
2023-04-10T01:22:24.138Z,6.22
2023-04-10T01:25:32.616Z,6.37
2023-04-10T01:28:20.812Z,5.60
2023-04-10T01:29:33.093Z,5.55
2023-04-10T01:32:12.776Z,5.72
2023-04-10T01:34:54.625Z,5.80
2023-04-10T01:37:24.974Z,6.03
2023-04-10T01:41:13.295Z,5.92
2023-04-10T01:43:42.569Z,5.80
2023-04-10T01:46:12.023Z,6.63
2023-04-10T01:47:22.773Z,6.52
2023-04-10T01:49:50.523Z,6.97
2023-04-10T01:52:38.995Z,6.88
2023-04-10T01:55:10.191Z,5.90
2023-04-10T01:57:37.570Z,6.02
2023-04-10T02:00:05.064Z,6.80
2023-04-10T02:02:38.193Z,5.98
2023-04-10T02:05:03.780Z,6.10
2023-04-10T02:07:58.313Z,6.58
2023-04-10T02:10:33.233Z,5.70
2023-04-10T02:13:26.269Z,6.40
2023-04-10T02:15:56.910Z,5.88
2023-04-10T02:19:36.382Z,6.08
2023-04-10T02:22:04.205Z,5.80
2023-04-10T02:24:35.324Z,5.77
2023-04-10T02:27:01.608Z,4.98
2023-04-10T02:29:26.506Z,5.77
2023-04-10T02:31:52.489Z,5.93
2023-04-10T02:34:18.347Z,5.45
2023-04-10T02:36:43.900Z,6.10
2023-04-10T02:39:09.329Z,7.47
2023-04-10T02:41:43.033Z,8.93
2023-04-10T02:44:11.036Z,6.80
2023-04-10T02:46:54.869Z,5.45
2023-04-10T02:49:26.909Z,6.03
2023-04-10T02:51:51.761Z,5.72
2023-04-10T02:54:16.082Z,5.78
2023-04-10T02:56:40.803Z,5.67
2023-04-10T02:59:05.468Z,5.80
2023-04-10T03:01:35.183Z,6.40
2023-04-10T03:05:13.895Z,6.20
2023-04-10T03:07:40.372Z,5.35
2023-04-10T03:10:08.006Z,5.02
2023-04-10T03:12:33.022Z,5.70
2023-04-10T03:14:59.720Z,6.32
2023-04-10T03:17:25.462Z,6.02
2023-04-10T03:19:51.080Z,5.97
2023-04-10T03:22:16.655Z,5.82
2023-04-10T03:24:41.966Z,6.10
2023-04-10T03:27:08.606Z,5.58
2023-04-10T03:29:34.684Z,5.95
2023-04-10T03:32:00.615Z,5.93
2023-04-10T03:34:26.361Z,5.95
2023-04-10T03:36:52.015Z,5.78
2023-04-10T03:38:02.487Z,5.95
2023-04-10T03:39:11.125Z,5.55
2023-04-10T03:41:36.968Z,5.73
2023-04-10T03:44:02.903Z,6.00
2023-04-10T03:46:28.229Z,5.95
2023-04-10T03:50:07.733Z,6.40
2023-04-10T03:52:41.430Z,5.40
2023-04-10T03:55:07.704Z,5.70
2023-04-10T03:57:33.112Z,5.80
2023-04-10T03:59:59.392Z,5.53
2023-04-10T04:02:28.167Z,5.25
2023-04-10T04:04:53.879Z,5.87
2023-04-10T04:07:39.936Z,5.87
2023-04-10T04:10:15.836Z,6.57
2023-04-10T04:12:47.894Z,7.68
2023-04-10T04:16:01.220Z,6.42
2023-04-10T04:19:17.834Z,5.70
2023-04-10T04:20:29.506Z,6.45
2023-04-10T04:23:48.563Z,5.95
2023-04-10T04:26:27.404Z,6.50
2023-04-10T04:29:03.703Z,6.30
2023-04-10T04:32:25.169Z,6.48
2023-04-10T04:35:42.177Z,7.52
2023-04-10T04:38:55.133Z,8.95
2023-04-10T04:42:24.219Z,7.70
2023-04-10T04:45:11.075Z,6.52
2023-04-10T04:47:55.951Z,5.93
2023-04-10T04:50:44.044Z,6.43
2023-04-10T04:52:11.951Z,6.33
2023-04-10T04:54:39.996Z,6.22
2023-04-10T04:57:47.704Z,7.57
2023-04-10T05:00:17.420Z,9.30
2023-04-10T05:02:48.434Z,9.02
2023-04-10T05:06:05.343Z,10.38
2023-04-10T05:08:44.306Z,9.50
2023-04-10T05:10:11.932Z,7.88
2023-04-10T05:12:56.361Z,7.12
2023-04-10T05:15:26.020Z,5.70
2023-04-10T05:18:03.576Z,5.20
2023-04-10T05:20:35.362Z,6.15
2023-04-10T05:21:48.801Z,6.50
2023-04-10T05:24:32.343Z,7.75
2023-04-10T05:27:44.743Z,8.70
2023-04-10T05:30:54.473Z,9.58
2023-04-10T05:33:53.599Z,8.22
2023-04-10T05:36:33.067Z,7.20
2023-04-10T05:39:10.390Z,6.90
2023-04-10T05:40:21.689Z,6.57
2023-04-10T05:42:51.977Z,6.08
2023-04-10T05:44:06.627Z,6.75
2023-04-10T05:46:34.060Z,6.63
2023-04-10T05:49:06.022Z,6.87
2023-04-10T05:52:41.482Z,8.32
2023-04-10T05:54:08.537Z,7.90
2023-04-10T05:56:00.805Z,6.70
2023-04-10T05:57:29.214Z,5.87
2023-04-10T05:59:59.232Z,5.60
2023-04-10T06:01:23.033Z,5.80
2023-04-10T06:03:52.577Z,6.72
2023-04-10T06:06:17.500Z,7.34
2023-04-10T06:07:26.906Z,7.35
2023-04-10T06:09:51.206Z,8.20
2023-04-10T06:12:17.779Z,6.53
2023-04-10T06:13:27.400Z,6.05
2023-04-10T06:15:54.866Z,6.05
2023-04-10T06:17:04.208Z,6.05
2023-04-10T06:19:29.147Z,6.10
2023-04-10T06:21:56.304Z,7.70
2023-04-10T06:23:06.935Z,8.00
2023-04-10T06:25:32.793Z,7.80
2023-04-10T06:27:58.109Z,7.03
2023-04-10T06:30:23.052Z,6.67
2023-04-10T06:32:49.681Z,6.78
2023-04-10T06:35:14.708Z,6.70
2023-04-10T06:37:39.166Z,6.55
2023-04-10T06:40:09.248Z,11.32
2023-04-10T06:42:35.251Z,9.35
2023-04-10T06:43:46.249Z,7.63
2023-04-10T06:46:11.334Z,9.90
2023-04-10T06:47:21.220Z,9.35
2023-04-10T06:48:32.329Z,9.30
2023-04-10T06:50:56.895Z,11.17
2023-04-10T06:53:23.328Z,8.08
2023-04-10T06:54:32.260Z,7.30
2023-04-10T06:56:58.708Z,7.67
2023-04-10T06:59:22.960Z,6.72
2023-04-10T07:00:32.159Z,7.27
2023-04-10T07:01:41.306Z,7.30
2023-04-10T07:02:50.367Z,7.63
2023-04-10T07:04:01.226Z,7.17
2023-04-10T07:05:10.760Z,8.90
2023-04-10T07:07:36.424Z,8.67
2023-04-10T07:10:01.521Z,9.22
2023-04-10T07:12:27.442Z,8.00
2023-04-10T07:14:54.458Z,7.82
2023-04-10T07:17:18.383Z,6.53
2023-04-10T07:19:43.224Z,6.48
2023-04-10T07:22:08.745Z,5.55
2023-04-10T07:24:32.490Z,4.48
2023-04-10T07:25:43.239Z,4.17
2023-04-10T07:26:52.701Z,4.18
2023-04-10T07:29:17.513Z,4.60
2023-04-10T07:30:27.877Z,4.35
2023-04-10T07:31:37.212Z,4.50
2023-04-10T07:34:04.096Z,3.33
2023-04-10T07:35:12.805Z,3.97
2023-04-10T07:37:40.401Z,3.87
2023-04-10T07:38:49.548Z,4.57
2023-04-10T07:41:15.194Z,4.05
2023-04-10T07:43:39.056Z,4.55
2023-04-10T07:46:04.804Z,4.45
2023-04-10T07:48:28.625Z,3.57
2023-04-10T07:50:52.902Z,3.55
2023-04-10T07:52:02.517Z,3.35
2023-04-10T07:53:11.716Z,3.98
2023-04-10T07:54:20.817Z,3.83
2023-04-10T07:55:30.017Z,5.32
2023-04-10T07:57:55.112Z,4.95
2023-04-10T08:00:21.339Z,5.08
2023-04-10T08:02:46.527Z,3.80
2023-04-10T08:03:56.546Z,3.45
2023-04-10T08:05:08.082Z,3.05
2023-04-10T08:07:33.352Z,3.22
2023-04-10T08:10:02.049Z,2.95
2023-04-10T08:12:45.871Z,3.07
2023-04-10T08:15:12.638Z,3.30
2023-04-10T08:17:41.117Z,3.50
2023-04-10T08:20:07.353Z,4.30
2023-04-10T08:22:33.097Z,5.12
2023-04-10T08:23:43.259Z,4.38
2023-04-10T08:26:10.172Z,5.07
2023-04-10T08:28:34.998Z,4.77
2023-04-10T08:30:59.078Z,4.57
2023-04-10T08:33:26.078Z,4.23
2023-04-10T08:34:36.224Z,4.40
2023-04-10T08:37:10.452Z,4.48
2023-04-10T08:39:36.735Z,4.65
2023-04-10T08:42:01.398Z,5.03
2023-04-10T08:44:26.396Z,5.57
2023-04-10T08:45:35.008Z,6.08
2023-04-10T08:46:45.953Z,6.30
2023-04-10T08:47:58.145Z,6.18
2023-04-10T08:49:11.211Z,5.82
2023-04-10T08:51:40.061Z,5.65
2023-04-10T08:52:53.432Z,5.88
2023-04-10T08:55:26.292Z,5.45
2023-04-10T08:58:00.514Z,7.98
2023-04-10T09:00:23.754Z,6.38
2023-04-10T09:02:51.436Z,6.63
2023-04-10T09:05:18.097Z,6.13
2023-04-10T09:07:42.287Z,6.57
2023-04-10T09:08:52.043Z,6.95
2023-04-10T09:10:01.027Z,7.12
2023-04-10T09:12:28.960Z,5.35
2023-04-10T09:13:40.784Z,6.33
2023-04-10T09:16:08.772Z,14.48
2023-04-10T09:20:09.274Z,6.13
2023-04-10T09:22:38.493Z,6.98
2023-04-10T09:25:05.622Z,5.67
2023-04-10T09:27:52.981Z,7.05
2023-04-10T09:30:22.645Z,7.22
2023-04-10T09:32:51.275Z,7.95
2023-04-10T09:37:01.300Z,6.30
2023-04-10T09:39:36.467Z,7.07
2023-04-10T09:42:03.919Z,6.47
2023-04-10T09:43:25.448Z,4.37
2023-04-10T09:44:38.132Z,4.65
2023-04-10T09:45:48.939Z,3.67
2023-04-10T09:47:55.825Z,3.10
2023-04-10T09:50:40.539Z,2.55
2023-04-10T09:53:24.854Z,3.07
2023-04-10T09:54:39.400Z,3.22
2023-04-10T09:57:07.455Z,3.40
2023-04-10T09:59:36.838Z,3.68
2023-04-10T10:02:04.944Z,3.67
2023-04-10T10:03:16.596Z,3.98
2023-04-10T10:05:46.224Z,3.83
2023-04-10T10:06:55.677Z,3.92
2023-04-10T10:08:04.904Z,3.63
2023-04-10T10:10:33.528Z,4.23
2023-04-10T10:11:42.647Z,4.45
2023-04-10T10:14:16.179Z,4.00
2023-04-10T10:17:06.943Z,4.12
2023-04-10T10:20:13.468Z,4.82
2023-04-10T10:21:23.686Z,3.35
2023-04-10T10:23:53.526Z,4.30
2023-04-10T10:25:03.932Z,3.53
2023-04-10T10:27:35.871Z,4.47
2023-04-10T10:30:12.100Z,3.87
2023-04-10T10:32:36.355Z,4.27
2023-04-10T10:35:07.579Z,3.63
2023-04-10T10:37:38.382Z,3.67
2023-04-10T10:40:21.843Z,3.63
2023-04-10T10:43:08.040Z,3.37
2023-04-10T10:46:00.743Z,3.55
2023-04-10T10:48:37.816Z,3.53
2023-04-10T10:51:12.396Z,4.70
2023-04-10T10:54:01.180Z,6.25
2023-04-10T10:56:43.388Z,3.87
2023-04-10T10:59:13.425Z,4.60
2023-04-10T11:01:43.975Z,4.38
2023-04-10T11:04:45.841Z,4.48
2023-04-10T11:07:15.658Z,4.47
2023-04-10T11:09:54.648Z,5.10
2023-04-10T11:11:08.757Z,5.52
2023-04-10T11:12:21.643Z,4.90
2023-04-10T11:14:59.981Z,4.95
2023-04-10T11:17:52.147Z,5.87
2023-04-10T11:19:14.842Z,5.40
2023-04-10T11:21:36.888Z,5.20
2023-04-10T11:23:11.162Z,4.72
2023-04-10T11:25:52.855Z,4.90
2023-04-10T11:28:36.433Z,4.32
2023-04-10T11:31:21.683Z,4.67
2023-04-10T11:34:10.870Z,4.50
2023-04-10T11:38:15.473Z,5.40
2023-04-10T11:42:12.505Z,5.55
2023-04-10T11:43:21.944Z,6.20
2023-04-10T11:45:50.692Z,6.23
2023-04-10T11:48:16.804Z,6.27
2023-04-10T11:50:43.582Z,7.05
2023-04-10T11:53:21.092Z,7.20
2023-04-10T11:55:46.595Z,9.40
2023-04-10T11:57:05.614Z,8.13
2023-04-10T11:59:41.118Z,6.92
2023-04-10T12:02:18.137Z,7.52
2023-04-10T12:04:58.962Z,8.00
2023-04-10T12:07:31.860Z,7.63
2023-04-10T12:08:42.980Z,8.22
2023-04-10T12:09:58.230Z,8.05
2023-04-10T12:11:09.867Z,7.97
2023-04-10T12:13:36.794Z,7.20
2023-04-10T12:16:07.036Z,7.63
2023-04-10T12:18:36.336Z,7.78
2023-04-10T12:19:46.174Z,7.57
2023-04-10T12:20:59.737Z,7.58
2023-04-10T12:22:13.082Z,7.12
2023-04-10T12:24:50.166Z,7.58
2023-04-10T12:27:28.508Z,7.53
2023-04-10T12:29:58.980Z,16.70
2023-04-10T12:31:08.968Z,34.98
2023-04-10T12:33:34.678Z,8.55
2023-04-10T12:34:51.925Z,7.60
2023-04-10T12:37:17.909Z,7.37
2023-04-10T12:40:16.452Z,6.43
2023-04-10T12:42:49.162Z,5.92
2023-04-10T12:45:43.877Z,5.32
2023-04-10T12:48:12.654Z,4.50
2023-04-10T12:49:21.347Z,4.55
2023-04-10T12:51:48.092Z,5.03
2023-04-10T19:44:14.838Z,8.00
2023-04-10T19:46:42.825Z,9.25
2023-04-10T19:49:07.954Z,9.73
2023-04-10T19:51:33.132Z,9.55
2023-04-10T19:52:43.222Z,10.12
2023-04-10T19:53:53.491Z,9.80
2023-04-10T19:56:17.636Z,9.60
2023-04-10T19:58:42.971Z,9.12
2023-04-10T19:59:53.528Z,10.62
2023-04-10T20:02:20.827Z,9.95
2023-04-10T20:04:48.557Z,9.08
2023-04-10T20:07:14.373Z,9.43
2023-04-10T20:09:39.052Z,8.83
2023-04-10T20:12:03.403Z,9.17
2023-04-10T20:14:34.283Z,8.78
2023-04-10T20:16:58.942Z,9.12
2023-04-10T20:18:07.511Z,9.38
2023-04-10T20:20:31.152Z,9.45
2023-04-10T20:21:40.985Z,9.50
2023-04-10T20:22:49.552Z,9.72
2023-04-10T20:25:14.457Z,9.25
2023-04-10T20:27:43.364Z,9.25
2023-04-10T20:28:53.948Z,9.60
2023-04-10T20:31:21.006Z,9.40
2023-04-10T20:33:46.661Z,9.65
2023-04-10T20:36:10.464Z,10.33
2023-04-10T20:38:36.754Z,8.83
2023-04-10T20:41:01.165Z,10.03
2023-04-10T20:42:10.804Z,9.87
2023-04-10T20:44:37.835Z,9.77
2023-04-10T20:47:03.053Z,9.12
2023-04-10T20:49:27.214Z,9.22
2023-04-10T20:51:52.634Z,9.43
2023-04-10T20:54:18.189Z,10.05
2023-04-10T20:56:44.031Z,9.35
2023-04-10T21:00:18.878Z,8.73
2023-04-10T21:01:29.544Z,8.92
2023-04-10T21:03:55.205Z,9.93
2023-04-10T21:06:21.184Z,9.88
2023-04-10T21:08:45.887Z,9.33
2023-04-10T21:11:10.249Z,10.08
2023-04-10T21:13:36.011Z,10.55
2023-04-10T21:16:02.455Z,9.90
2023-04-10T21:18:48.221Z,10.03
2023-04-10T21:21:15.524Z,10.00
2023-04-10T21:23:45.253Z,10.55
2023-04-10T21:26:10.358Z,10.08
2023-04-10T21:27:19.042Z,9.90
2023-04-10T21:29:45.565Z,10.50
2023-04-10T21:32:09.693Z,10.73
2023-04-10T21:33:19.819Z,10.47
2023-04-10T21:34:30.153Z,9.82
2023-04-10T21:36:56.002Z,10.00
2023-04-10T21:39:20.163Z,9.60
2023-04-10T21:41:49.338Z,10.13
2023-04-10T21:42:58.580Z,9.40
2023-04-10T21:45:21.996Z,9.97
2023-04-10T21:47:47.933Z,9.33
2023-04-10T21:48:59.109Z,10.45
2023-04-10T21:51:26.890Z,10.85
2023-04-10T21:53:51.691Z,10.22
2023-04-10T21:56:38.715Z,10.75
2023-04-10T21:57:48.374Z,10.23
2023-04-10T21:58:57.738Z,10.37
2023-04-10T22:01:25.296Z,10.83
2023-04-10T22:02:34.642Z,10.28
2023-04-10T22:05:02.728Z,10.05
2023-04-10T22:07:26.502Z,10.75
2023-04-10T22:09:51.993Z,10.30
2023-04-10T22:12:15.782Z,10.72
2023-04-10T22:14:41.899Z,10.80
2023-04-10T22:17:06.422Z,11.33
2023-04-10T22:18:16.520Z,10.95
2023-04-10T22:20:41.127Z,10.37
2023-04-10T22:23:06.288Z,10.47
2023-04-10T22:25:30.697Z,10.73
2023-04-10T22:28:00.061Z,10.82
2023-04-10T22:29:08.977Z,11.43
2023-04-10T22:30:18.843Z,10.85
2023-04-10T22:31:27.867Z,11.37
2023-04-10T22:33:52.900Z,10.92
2023-04-10T22:36:17.762Z,11.42
2023-04-10T22:38:43.985Z,11.55
2023-04-10T22:41:12.360Z,11.05
2023-04-10T22:43:37.260Z,11.55
2023-04-10T22:46:02.966Z,12.15
2023-04-10T22:48:26.605Z,11.70
2023-04-10T22:51:12.465Z,11.43
2023-04-10T22:52:21.718Z,11.53
2023-04-10T22:53:30.553Z,10.98
2023-04-10T22:55:55.331Z,12.40
2023-04-10T22:58:22.653Z,11.12
2023-04-10T23:00:47.296Z,12.08
2023-04-10T23:01:56.985Z,12.75
2023-04-10T23:04:20.681Z,11.98
2023-04-10T23:06:44.513Z,12.13
2023-04-10T23:09:10.792Z,12.60
2023-04-10T23:11:36.250Z,12.62
2023-04-10T23:14:01.011Z,11.90
2023-04-10T23:16:27.505Z,11.92
2023-04-10T23:18:52.231Z,12.42
2023-04-10T23:21:17.468Z,12.78
2023-04-10T23:22:29.466Z,12.65
2023-04-10T23:23:39.041Z,11.53
2023-04-10T23:26:11.111Z,12.27
2023-04-10T23:27:20.738Z,11.32
2023-04-10T23:28:29.764Z,11.70
2023-04-10T23:30:54.910Z,11.80
2023-04-10T23:33:21.185Z,13.00
2023-04-10T23:35:46.462Z,12.08
2023-04-10T23:38:10.884Z,12.00
2023-04-10T23:39:21.829Z,12.07
2023-04-10T23:41:49.705Z,11.97
2023-04-10T23:44:16.035Z,12.20
2023-04-10T23:46:39.968Z,11.57
2023-04-10T23:49:03.621Z,12.17
2023-04-10T23:51:27.900Z,11.47
2023-04-10T23:52:37.892Z,12.10
2023-04-10T23:55:01.401Z,12.30
2023-04-10T23:57:27.275Z,11.72
2023-04-10T23:59:52.785Z,12.77
